createdAt,value
2022-09-12T00:01:27.057Z,4.95
2022-09-12T00:06:26.499Z,6.03
2022-09-12T00:11:21.015Z,6.55
2022-09-12T00:16:22.207Z,7.50
2022-09-12T00:21:16.542Z,6.93
2022-09-12T00:26:10.144Z,8.35
2022-09-12T00:31:27.104Z,8.27
2022-09-12T00:36:22.296Z,6.55
2022-09-12T00:41:42.292Z,7.30
2022-09-12T00:47:04.311Z,8.25
2022-09-12T00:52:17.847Z,10.23
2022-09-12T01:02:04.929Z,8.10
2022-09-12T01:07:00.112Z,12.20
2022-09-12T01:11:58.584Z,6.85
2022-09-12T01:16:52.408Z,8.82
2022-09-12T01:22:04.733Z,8.77
2022-09-12T01:27:06.902Z,5.63
2022-09-12T01:32:00.370Z,7.65
2022-09-12T01:37:23.129Z,7.80
2022-09-12T01:42:47.881Z,7.32
2022-09-12T01:47:43.288Z,7.40
2022-09-12T01:52:54.674Z,8.10
2022-09-12T01:58:16.699Z,9.20
2022-09-12T02:03:12.893Z,9.15
2022-09-12T02:08:15.412Z,8.00
2022-09-12T02:13:14.469Z,7.60
2022-09-12T02:18:08.567Z,6.95
2022-09-12T02:23:02.172Z,9.85
2022-09-12T02:28:03.021Z,17.85
2022-09-12T02:33:08.251Z,9.07
2022-09-12T02:38:15.700Z,9.95
2022-09-12T02:43:10.038Z,8.77
2022-09-12T02:48:16.242Z,8.90
2022-09-12T02:53:10.647Z,8.57
2022-09-12T02:58:06.549Z,8.32
2022-09-12T03:03:06.260Z,8.75
2022-09-12T03:08:22.426Z,13.95
2022-09-12T03:13:45.527Z,15.68
2022-09-12T03:18:52.844Z,12.90
2022-09-12T03:24:09.016Z,10.55
2022-09-12T03:29:04.729Z,10.95
2022-09-12T03:33:57.620Z,9.30
2022-09-12T03:38:51.763Z,11.38
2022-09-12T03:43:45.443Z,12.40
2022-09-12T03:48:38.668Z,10.95
2022-09-12T03:53:33.333Z,12.77
2022-09-12T03:58:31.512Z,15.00
2022-09-12T04:03:25.683Z,15.27
2022-09-12T04:08:19.896Z,10.82
2022-09-12T04:13:13.536Z,9.93
2022-09-12T04:23:01.846Z,19.60
2022-09-12T04:27:56.469Z,25.88
2022-09-12T04:32:49.978Z,24.50
2022-09-12T04:37:44.804Z,13.60
2022-09-12T04:42:39.641Z,14.25
2022-09-12T04:47:34.027Z,13.70
2022-09-12T04:52:28.506Z,13.68
2022-09-12T04:57:23.255Z,12.02
2022-09-12T05:02:17.160Z,13.35
2022-09-12T05:07:12.533Z,11.77
2022-09-12T05:12:08.279Z,15.23
2022-09-12T05:17:05.971Z,14.38
2022-09-12T05:21:59.795Z,15.32
2022-09-12T05:26:53.881Z,11.52
2022-09-12T05:31:50.967Z,12.48
2022-09-12T05:36:44.765Z,14.80
2022-09-12T05:41:38.392Z,9.98
2022-09-12T05:46:37.672Z,12.38
2022-09-12T05:51:35.837Z,16.23
2022-09-12T05:56:31.760Z,20.95
2022-09-12T06:01:26.741Z,25.00
2022-09-12T06:06:22.584Z,23.42
2022-09-12T06:11:19.031Z,29.98
2022-09-12T06:16:19.030Z,17.80
2022-09-12T06:21:13.718Z,19.27
2022-09-12T06:26:10.239Z,14.45
2022-09-12T06:31:09.996Z,16.35
2022-09-12T06:36:14.354Z,19.33
2022-09-12T06:41:09.216Z,16.02
2022-09-12T06:46:03.397Z,25.17
2022-09-12T06:50:58.225Z,23.20
2022-09-12T06:56:04.534Z,22.85
2022-09-12T07:01:31.852Z,17.38
2022-09-12T07:06:32.013Z,26.23
2022-09-12T07:11:50.218Z,31.58
2022-09-12T07:16:46.198Z,24.50
2022-09-12T07:21:43.267Z,24.63
2022-09-12T07:26:36.866Z,22.13
2022-09-12T07:31:31.813Z,24.25
2022-09-12T07:36:26.426Z,13.15
2022-09-12T07:41:22.195Z,16.70
2022-09-12T07:46:15.262Z,17.17
2022-09-12T07:51:10.825Z,18.30
2022-09-12T07:56:06.301Z,15.57
2022-09-12T08:01:08.135Z,13.93
2022-09-12T08:06:28.633Z,14.95
2022-09-12T08:11:22.940Z,12.45
2022-09-12T08:16:19.065Z,8.25
2022-09-12T08:21:23.458Z,12.82
2022-09-12T08:26:17.844Z,12.07
2022-09-12T08:31:17.224Z,13.90
2022-09-12T08:36:22.262Z,13.07
2022-09-12T08:41:30.344Z,13.65
2022-09-12T08:46:29.474Z,12.25
2022-09-12T08:51:23.708Z,12.57
2022-09-12T08:56:18.516Z,11.45
2022-09-12T09:01:19.245Z,9.45
2022-09-12T09:06:20.796Z,11.65
2022-09-12T09:11:46.235Z,7.15
2022-09-12T09:16:43.637Z,10.52
2022-09-12T09:22:13.514Z,9.43
2022-09-12T09:27:50.072Z,8.23
2022-09-12T09:32:46.155Z,13.07
2022-09-12T09:37:59.868Z,10.52
2022-09-12T09:43:11.408Z,13.98
2022-09-12T09:48:13.140Z,13.90
2022-09-12T09:53:37.626Z,8.55
2022-09-12T09:58:36.426Z,7.13
2022-09-12T10:03:32.342Z,13.95
2022-09-12T10:08:31.253Z,11.65
2022-09-12T10:14:03.935Z,11.23
2022-09-12T10:19:18.773Z,9.68
2022-09-12T10:24:18.068Z,9.13
2022-09-12T10:29:34.172Z,10.30
2022-09-12T10:34:55.755Z,8.95
2022-09-12T10:39:57.469Z,7.53
2022-09-12T10:44:56.370Z,8.70
2022-09-12T10:49:54.336Z,9.43
2022-09-12T10:55:26.938Z,7.75
2022-09-12T11:00:40.378Z,6.90
2022-09-12T11:05:43.929Z,5.03
2022-09-12T11:10:59.316Z,6.60
2022-09-12T11:16:11.732Z,6.78
2022-09-12T11:21:26.320Z,7.45
2022-09-12T11:26:47.160Z,7.85
2022-09-12T11:31:55.318Z,9.15
2022-09-12T11:37:15.113Z,8.50
2022-09-12T11:42:17.748Z,6.87
2022-09-12T11:47:31.700Z,6.57
2022-09-12T11:52:27.571Z,3.80
2022-09-12T11:57:43.160Z,5.05
2022-09-12T12:03:07.195Z,6.63
2022-09-12T12:08:03.128Z,2.92
2022-09-12T12:12:57.147Z,3.58
2022-09-12T12:18:24.375Z,6.03
2022-09-12T12:24:13.154Z,6.93
2022-09-12T12:29:32.375Z,5.68
2022-09-12T12:34:42.101Z,4.53
2022-09-12T12:39:35.547Z,3.40
2022-09-12T12:44:47.253Z,1.88
2022-09-12T12:49:41.028Z,6.38
2022-09-12T12:54:42.336Z,2.05
2022-09-12T12:59:39.038Z,3.47
2022-09-12T13:04:33.692Z,3.63
2022-09-12T13:09:38.868Z,9.65
2022-09-12T13:14:43.429Z,6.30
2022-09-12T13:19:39.013Z,2.85
2022-09-12T13:24:33.889Z,2.42
2022-09-12T13:29:29.402Z,4.65
2022-09-12T13:34:32.601Z,3.72
2022-09-12T13:39:50.431Z,1.75
2022-09-12T13:44:46.163Z,1.90
2022-09-12T13:49:42.298Z,3.13
2022-09-12T13:54:38.774Z,4.20
2022-09-12T13:59:43.604Z,4.20
2022-09-12T14:04:57.575Z,2.97
2022-09-12T14:10:00.545Z,3.45
2022-09-12T14:14:58.746Z,5.47
2022-09-12T14:19:54.107Z,3.40
2022-09-12T14:24:51.215Z,5.28
2022-09-12T14:29:44.897Z,4.43
2022-09-12T14:34:38.832Z,4.50
2022-09-12T14:39:43.818Z,5.57
2022-09-12T14:44:38.555Z,6.20
2022-09-12T14:49:37.459Z,6.32
2022-09-12T14:54:34.616Z,3.00
2022-09-12T14:59:30.737Z,5.15
2022-09-12T15:04:41.702Z,3.13
2022-09-12T15:09:44.040Z,3.78
2022-09-12T15:14:40.854Z,5.07
2022-09-12T15:19:35.382Z,4.38
2022-09-12T15:24:29.176Z,3.08
2022-09-12T15:29:23.396Z,3.05
2022-09-12T15:34:16.220Z,9.95
2022-09-12T15:39:12.408Z,5.07
2022-09-12T15:44:07.799Z,6.72
2022-09-12T15:49:02.456Z,3.97
2022-09-12T15:53:56.727Z,6.05
2022-09-12T15:58:58.677Z,2.95
2022-09-12T16:08:46.791Z,7.55
2022-09-12T16:13:40.465Z,4.60
2022-09-12T16:18:34.994Z,3.65
2022-09-12T16:23:29.208Z,3.30
2022-09-12T16:28:23.769Z,4.07
2022-09-12T16:33:17.999Z,5.10
2022-09-12T16:38:11.792Z,3.33
2022-09-12T16:43:06.068Z,4.00
2022-09-12T16:48:00.136Z,3.60
2022-09-12T16:52:54.163Z,5.38
2022-09-12T16:57:50.228Z,3.40
2022-09-12T17:02:44.963Z,4.20
2022-09-12T17:07:38.789Z,6.20
2022-09-12T17:12:33.172Z,5.00
2022-09-12T17:17:28.018Z,8.07
2022-09-12T17:22:22.129Z,7.57
2022-09-12T17:27:16.563Z,8.45
2022-09-12T17:32:11.742Z,6.00
2022-09-12T17:37:08.883Z,8.15
2022-09-12T17:42:02.725Z,5.68
2022-09-12T17:46:56.876Z,12.55
2022-09-12T17:51:52.979Z,8.07
2022-09-12T17:56:50.194Z,3.03
2022-09-12T18:02:02.593Z,2.22
2022-09-12T18:06:58.356Z,4.07
2022-09-12T18:11:52.737Z,1.65
2022-09-12T18:16:48.074Z,5.43
2022-09-12T18:21:42.068Z,7.32
2022-09-12T18:26:36.465Z,3.17
2022-09-12T18:31:32.016Z,4.28
2022-09-12T18:36:26.785Z,7.40
2022-09-12T18:41:25.439Z,6.60
2022-09-12T18:46:20.424Z,5.53
2022-09-12T18:51:19.829Z,5.10
2022-09-12T18:56:15.028Z,6.22
2022-09-12T19:01:14.880Z,4.97
2022-09-12T19:06:13.078Z,6.10
2022-09-12T19:11:13.556Z,7.32
2022-09-12T19:16:10.255Z,7.55
2022-09-12T19:21:09.384Z,6.05
2022-09-12T19:26:08.528Z,4.75
2022-09-12T19:31:06.024Z,10.20
2022-09-12T19:36:10.655Z,4.90
2022-09-12T19:41:16.496Z,9.35
2022-09-12T19:46:14.547Z,5.65
2022-09-12T19:51:11.193Z,8.98
2022-09-12T19:56:06.981Z,9.60
2022-09-12T20:01:16.469Z,10.07
2022-09-12T20:06:11.896Z,4.38
2022-09-12T20:11:06.750Z,8.27
2022-09-12T20:16:22.815Z,7.30
2022-09-12T20:21:19.542Z,6.82
2022-09-12T20:26:14.338Z,6.10
2022-09-12T20:31:12.106Z,6.72
2022-09-12T20:36:05.855Z,6.70
2022-09-12T20:40:59.225Z,5.10
2022-09-12T20:45:53.759Z,7.75
2022-09-12T20:50:48.288Z,6.63
2022-09-12T20:55:41.364Z,8.25
2022-09-12T21:00:35.488Z,5.85
2022-09-12T21:05:29.184Z,6.38
2022-09-12T21:10:22.850Z,4.38
2022-09-12T21:15:16.827Z,6.55
2022-09-12T21:20:11.911Z,6.60
2022-09-12T21:25:07.608Z,5.13
2022-09-12T21:30:04.040Z,6.35
2022-09-12T21:34:58.389Z,5.97
2022-09-12T21:39:56.375Z,6.63
2022-09-12T21:44:50.740Z,11.07
2022-09-12T21:49:44.607Z,7.22
2022-09-12T21:54:39.127Z,7.28
2022-09-12T21:59:33.468Z,6.53
2022-09-12T22:04:27.928Z,8.18
2022-09-12T22:09:21.908Z,9.50
2022-09-12T22:14:16.150Z,7.55
2022-09-12T22:19:10.586Z,5.07
2022-09-12T22:24:37.113Z,3.85
2022-09-12T22:29:30.964Z,4.95
2022-09-12T22:34:25.560Z,8.75
2022-09-12T22:39:19.571Z,8.15
2022-09-12T22:44:13.284Z,8.27
2022-09-12T22:49:08.213Z,7.10
2022-09-12T22:54:01.939Z,4.22
2022-09-12T22:58:55.763Z,5.97
2022-09-12T23:03:50.596Z,5.55
2022-09-12T23:08:44.719Z,5.03
2022-09-12T23:13:40.314Z,7.90
2022-09-12T23:18:37.102Z,5.40
2022-09-12T23:23:29.959Z,7.20
2022-09-12T23:28:24.891Z,5.30
2022-09-12T23:33:19.702Z,3.78
2022-09-12T23:38:14.757Z,9.73
2022-09-12T23:43:08.915Z,3.65
2022-09-12T23:48:03.993Z,6.68
2022-09-12T23:52:57.764Z,4.68
2022-09-12T23:57:51.405Z,4.70
